createdAt,value
2022-09-11T00:02:22.553Z,13.56
2022-09-11T00:05:26.121Z,13.51
2022-09-11T00:08:28.358Z,13.53
2022-09-11T00:11:35.120Z,13.53
2022-09-11T00:14:37.345Z,13.52
2022-09-11T00:17:39.392Z,13.54
2022-09-11T00:20:49.565Z,13.54
2022-09-11T00:23:51.691Z,13.48
2022-09-11T00:26:53.951Z,13.46
2022-09-11T00:29:56.006Z,13.40
2022-09-11T00:32:58.263Z,13.32
2022-09-11T00:36:08.340Z,13.37
2022-09-11T00:39:12.088Z,13.40
2022-09-11T00:42:14.184Z,13.42
2022-09-11T00:45:23.557Z,13.32
2022-09-11T00:48:29.932Z,13.39
2022-09-11T00:51:34.185Z,13.41
2022-09-11T00:54:43.343Z,13.18
2022-09-11T00:57:53.666Z,13.20
2022-09-11T01:00:56.994Z,13.19
2022-09-11T01:04:03.451Z,13.20
2022-09-11T01:07:05.637Z,13.15
2022-09-11T01:10:10.353Z,13.16
2022-09-11T01:13:22.092Z,13.13
2022-09-11T01:16:34.794Z,13.09
2022-09-11T01:19:52.341Z,13.06
2022-09-11T01:23:32.722Z,13.04
2022-09-11T01:26:47.897Z,12.99
2022-09-11T01:29:55.338Z,13.01
2022-09-11T01:33:06.522Z,13.08
2022-09-11T01:36:28.932Z,12.98
2022-09-11T01:39:38.790Z,12.96
2022-09-11T01:42:43.328Z,12.98
2022-09-11T01:45:47.512Z,13.04
2022-09-11T01:49:25.807Z,13.01
2022-09-11T01:52:36.104Z,13.01
2022-09-11T01:55:45.992Z,13.01
2022-09-11T01:58:57.242Z,12.97
2022-09-11T02:02:04.633Z,12.99
2022-09-11T02:05:18.313Z,12.98
2022-09-11T02:08:49.109Z,12.96
2022-09-11T02:11:58.030Z,12.95
2022-09-11T02:15:00.441Z,12.87
2022-09-11T02:18:26.877Z,12.89
2022-09-11T02:21:31.077Z,12.96
2022-09-11T02:24:33.198Z,12.83
2022-09-11T02:27:37.035Z,12.88
2022-09-11T02:30:40.386Z,12.96
2022-09-11T02:33:43.951Z,12.95
2022-09-11T02:37:23.568Z,13.01
2022-09-11T02:40:44.976Z,13.02
2022-09-11T02:43:56.480Z,12.98
2022-09-11T02:47:07.375Z,12.86
2022-09-11T02:50:36.273Z,12.77
2022-09-11T02:53:56.701Z,12.82
2022-09-11T02:57:10.385Z,12.83
2022-09-11T03:00:14.089Z,12.88
2022-09-11T03:03:16.473Z,12.90
2022-09-11T03:06:25.136Z,12.93
2022-09-11T03:09:27.222Z,12.87
2022-09-11T03:12:35.732Z,12.86
2022-09-11T03:15:37.816Z,12.87
2022-09-11T03:18:40.468Z,12.80
2022-09-11T03:21:43.415Z,12.86
2022-09-11T03:24:45.947Z,12.79
2022-09-11T03:27:48.263Z,12.82
2022-09-11T03:30:52.953Z,12.75
2022-09-11T03:33:55.851Z,12.66
2022-09-11T03:36:58.106Z,12.56
2022-09-11T03:40:01.668Z,12.48
2022-09-11T03:43:04.186Z,12.63
2022-09-11T03:46:06.437Z,12.70
2022-09-11T03:49:10.100Z,12.72
2022-09-11T03:52:12.243Z,12.74
2022-09-11T03:55:15.082Z,12.75
2022-09-11T03:58:19.442Z,12.80
2022-09-11T04:01:22.834Z,12.71
2022-09-11T04:04:25.737Z,12.76
2022-09-11T04:07:29.467Z,12.78
2022-09-11T04:10:34.170Z,12.79
2022-09-11T04:13:39.316Z,12.80
2022-09-11T04:16:43.904Z,12.78
2022-09-11T04:19:46.403Z,12.74
2022-09-11T04:22:49.276Z,12.70
2022-09-11T04:25:52.453Z,12.69
2022-09-11T04:28:54.754Z,12.79
2022-09-11T04:31:57.727Z,12.62
2022-09-11T04:35:03.982Z,12.68
2022-09-11T04:38:11.757Z,12.69
2022-09-11T04:41:15.875Z,12.72
2022-09-11T04:44:20.766Z,12.70
2022-09-11T04:47:22.893Z,12.69
2022-09-11T04:50:25.710Z,12.70
2022-09-11T04:53:45.912Z,12.71
2022-09-11T04:56:49.021Z,12.82
2022-09-11T04:59:53.054Z,12.78
2022-09-11T05:02:55.935Z,12.64
2022-09-11T05:05:57.983Z,12.66
2022-09-11T05:09:08.097Z,12.59
2022-09-11T05:12:11.047Z,12.55
2022-09-11T05:15:13.601Z,12.52
2022-09-11T05:18:15.973Z,12.58
2022-09-11T05:21:20.031Z,12.63
2022-09-11T05:24:22.836Z,12.62
2022-09-11T05:27:27.112Z,12.58
2022-09-11T05:30:30.411Z,12.55
2022-09-11T05:33:33.037Z,12.64
2022-09-11T05:36:35.916Z,12.65
2022-09-11T05:39:38.464Z,12.65
2022-09-11T05:42:42.479Z,12.59
2022-09-11T05:45:45.882Z,12.62
2022-09-11T05:48:48.398Z,12.61
2022-09-11T05:51:50.839Z,12.64
2022-09-11T05:54:53.655Z,12.67
2022-09-11T05:57:56.866Z,12.66
2022-09-11T06:01:12.959Z,12.60
2022-09-11T06:04:18.653Z,12.64
2022-09-11T06:07:22.610Z,12.68
2022-09-11T06:10:26.118Z,12.65
2022-09-11T06:13:39.040Z,12.60
2022-09-11T06:16:42.852Z,12.71
2022-09-11T06:19:49.094Z,12.72
2022-09-11T06:22:53.161Z,12.80
2022-09-11T06:26:03.654Z,12.84
2022-09-11T06:29:10.381Z,12.80
2022-09-11T06:32:12.625Z,12.86
2022-09-11T06:35:15.789Z,12.86
2022-09-11T06:38:18.328Z,12.87
2022-09-11T06:41:21.155Z,12.87
2022-09-11T06:44:26.552Z,12.82
2022-09-11T06:47:30.114Z,12.75
2022-09-11T06:50:40.854Z,12.88
2022-09-11T06:53:43.956Z,12.81
2022-09-11T06:56:47.815Z,12.87
2022-09-11T06:59:52.536Z,12.85
2022-09-11T07:02:56.991Z,12.87
2022-09-11T07:06:01.019Z,12.75
2022-09-11T07:09:03.760Z,12.73
2022-09-11T07:12:28.315Z,12.73
2022-09-11T07:15:32.574Z,12.84
2022-09-11T07:18:41.534Z,12.81
2022-09-11T07:21:47.613Z,12.77
2022-09-11T07:24:54.493Z,12.82
2022-09-11T07:27:56.651Z,12.76
2022-09-11T07:31:12.101Z,12.71
2022-09-11T07:34:14.668Z,12.66
2022-09-11T07:37:18.681Z,12.62
2022-09-11T07:40:21.347Z,12.71
2022-09-11T07:43:24.499Z,12.78
2022-09-11T07:46:27.235Z,12.58
2022-09-11T07:49:30.409Z,12.65
2022-09-11T07:52:33.814Z,12.65
2022-09-11T07:55:39.554Z,12.68
2022-09-11T07:58:43.425Z,12.62
2022-09-11T08:01:47.010Z,12.63
2022-09-11T08:04:51.665Z,12.61
2022-09-11T08:07:54.792Z,12.59
2022-09-11T08:11:00.732Z,12.46
2022-09-11T08:14:05.041Z,12.52
2022-09-11T08:17:07.370Z,12.61
2022-09-11T08:20:12.421Z,12.42
2022-09-11T08:23:15.421Z,12.36
2022-09-11T08:26:29.084Z,12.42
2022-09-11T08:29:33.852Z,12.46
2022-09-11T08:32:37.223Z,12.44
2022-09-11T08:35:39.239Z,12.60
2022-09-11T08:38:43.206Z,12.63
2022-09-11T08:41:48.984Z,12.48
2022-09-11T08:44:56.663Z,12.36
2022-09-11T08:48:13.579Z,12.35
2022-09-11T08:51:17.631Z,12.34
2022-09-11T08:54:27.698Z,12.41
2022-09-11T08:57:47.471Z,12.41
2022-09-11T09:01:02.279Z,12.34
2022-09-11T09:04:27.575Z,12.35
2022-09-11T09:08:08.799Z,12.28
2022-09-11T09:11:22.984Z,12.36
2022-09-11T09:15:10.334Z,12.28
2022-09-11T09:18:13.705Z,12.14
2022-09-11T09:21:37.337Z,12.36
2022-09-11T09:24:50.861Z,12.06
2022-09-11T09:28:13.245Z,12.05
2022-09-11T09:31:30.997Z,12.18
2022-09-11T09:34:36.138Z,12.18
2022-09-11T09:37:38.998Z,12.25
2022-09-11T09:40:52.663Z,12.18
2022-09-11T09:44:10.813Z,12.31
2022-09-11T09:47:13.894Z,12.19
2022-09-11T09:50:31.645Z,12.27
2022-09-11T09:53:41.612Z,12.18
2022-09-11T09:56:49.489Z,12.30
2022-09-11T10:00:06.912Z,12.17
2022-09-11T10:03:21.230Z,12.21
2022-09-11T10:06:23.629Z,12.39
2022-09-11T10:09:28.342Z,12.55
2022-09-11T10:12:31.657Z,12.69
2022-09-11T10:15:39.256Z,12.47
2022-09-11T10:18:43.217Z,12.49
2022-09-11T10:21:45.637Z,12.44
2022-09-11T10:25:02.415Z,12.49
2022-09-11T10:28:14.960Z,12.65
2022-09-11T10:31:18.253Z,12.73
2022-09-11T10:34:22.590Z,12.80
2022-09-11T10:37:29.887Z,12.96
2022-09-11T10:40:32.269Z,13.09
2022-09-11T10:43:42.695Z,13.14
2022-09-11T10:46:46.090Z,13.21
2022-09-11T10:49:49.062Z,13.33
2022-09-11T10:53:23.190Z,13.50
2022-09-11T10:56:27.232Z,13.65
2022-09-11T10:59:37.217Z,13.64
2022-09-11T11:02:42.990Z,13.78
2022-09-11T11:06:04.121Z,13.96
2022-09-11T11:09:16.329Z,13.99
2022-09-11T11:12:33.467Z,14.18
2022-09-11T11:15:54.310Z,14.19
2022-09-11T11:19:39.404Z,14.28
2022-09-11T11:23:22.507Z,14.38
2022-09-11T11:26:46.792Z,14.35
2022-09-11T11:30:00.654Z,14.58
2022-09-11T11:33:18.641Z,14.49
2022-09-11T11:36:42.432Z,14.59
2022-09-11T11:39:55.778Z,14.64
2022-09-11T11:43:17.844Z,14.74
2022-09-11T11:46:24.249Z,14.74
2022-09-11T11:49:45.618Z,14.76
2022-09-11T11:53:24.618Z,15.07
2022-09-11T11:56:37.945Z,15.29
2022-09-11T12:00:19.891Z,15.43
2022-09-11T12:03:27.575Z,15.56
2022-09-11T12:06:30.086Z,15.57
2022-09-11T12:09:33.804Z,15.67
2022-09-11T12:12:48.246Z,15.84
2022-09-11T12:16:15.107Z,15.99
2022-09-11T12:19:20.122Z,15.86
2022-09-11T12:22:33.657Z,16.00
2022-09-11T12:25:36.450Z,15.92
2022-09-11T12:28:38.762Z,16.01
2022-09-11T12:31:53.434Z,16.30
2022-09-11T12:35:02.120Z,16.45
2022-09-11T12:38:13.314Z,16.62
2022-09-11T12:41:22.757Z,16.80
2022-09-11T12:44:33.268Z,16.97
2022-09-11T12:47:41.797Z,17.16
2022-09-11T12:50:55.875Z,16.95
2022-09-11T12:54:05.056Z,16.79
2022-09-11T12:57:19.332Z,17.01
2022-09-11T13:00:24.458Z,17.02
2022-09-11T13:03:30.092Z,17.29
2022-09-11T13:06:44.344Z,17.71
2022-09-11T13:09:48.225Z,17.75
2022-09-11T13:12:52.866Z,17.50
2022-09-11T13:15:58.454Z,17.66
2022-09-11T13:19:14.483Z,17.98
2022-09-11T13:22:27.942Z,18.09
2022-09-11T13:25:35.064Z,18.26
2022-09-11T13:28:47.519Z,18.42
2022-09-11T13:31:49.954Z,18.15
2022-09-11T13:34:59.553Z,18.13
2022-09-11T13:38:03.343Z,18.08
2022-09-11T13:41:18.408Z,17.95
2022-09-11T13:44:31.955Z,18.08
2022-09-11T13:47:40.952Z,18.10
2022-09-11T13:50:43.209Z,18.11
2022-09-11T13:53:49.297Z,18.15
2022-09-11T13:56:57.550Z,18.18
2022-09-11T14:00:00.526Z,18.07
2022-09-11T14:03:02.954Z,17.92
2022-09-11T14:06:19.174Z,17.88
2022-09-11T14:09:22.136Z,17.82
2022-09-11T14:12:25.297Z,17.89
2022-09-11T14:15:35.656Z,17.77
2022-09-11T14:18:48.716Z,17.88
2022-09-11T14:21:51.402Z,17.80
2022-09-11T14:25:19.446Z,18.08
2022-09-11T14:28:43.568Z,17.96
2022-09-11T14:31:45.822Z,18.02
2022-09-11T14:34:47.840Z,18.05
2022-09-11T14:37:51.216Z,18.07
2022-09-11T14:40:59.345Z,17.74
2022-09-11T14:44:02.176Z,17.70
2022-09-11T14:47:04.366Z,17.58
2022-09-11T14:50:12.007Z,17.59
2022-09-11T14:53:22.212Z,17.71
2022-09-11T14:56:24.589Z,17.68
2022-09-11T14:59:30.351Z,17.68
2022-09-11T15:02:32.665Z,17.65
2022-09-11T15:05:34.826Z,17.41
2022-09-11T15:08:39.194Z,17.40
2022-09-11T15:11:41.787Z,17.27
2022-09-11T15:14:56.126Z,17.00
2022-09-11T15:18:00.156Z,16.60
2022-09-11T15:21:02.525Z,16.34
2022-09-11T15:24:05.571Z,16.29
2022-09-11T15:27:10.441Z,16.13
2022-09-11T15:30:12.916Z,16.18
2022-09-11T15:33:15.279Z,16.00
2022-09-11T15:36:18.559Z,16.06
2022-09-11T15:39:24.487Z,15.97
2022-09-11T15:42:26.966Z,15.92
2022-09-11T15:45:30.554Z,15.75
2022-09-11T15:48:33.180Z,15.81
2022-09-11T15:51:36.199Z,15.69
2022-09-11T15:54:38.729Z,15.70
2022-09-11T15:57:41.386Z,15.63
2022-09-11T16:00:46.958Z,15.70
2022-09-11T16:03:54.708Z,15.75
2022-09-11T16:06:57.357Z,15.65
2022-09-11T16:09:59.931Z,15.61
2022-09-11T16:13:02.680Z,15.51
2022-09-11T16:16:06.442Z,15.54
2022-09-11T16:19:09.283Z,15.55
2022-09-11T16:22:12.107Z,15.43
2022-09-11T16:25:14.871Z,15.43
2022-09-11T16:28:18.115Z,15.48
2022-09-11T16:31:20.822Z,15.29
2022-09-11T16:34:23.442Z,15.34
2022-09-11T16:37:26.078Z,15.35
2022-09-11T16:40:28.848Z,15.41
2022-09-11T16:43:31.822Z,15.41
2022-09-11T16:46:34.933Z,15.38
2022-09-11T16:50:03.314Z,15.35
2022-09-11T16:52:59.677Z,15.43
2022-09-11T16:56:06.471Z,15.41
2022-09-11T16:59:09.413Z,15.40
2022-09-11T17:02:11.477Z,15.26
2022-09-11T17:05:14.520Z,15.11
2022-09-11T17:08:17.797Z,15.02
2022-09-11T17:11:22.357Z,14.77
2022-09-11T17:14:24.512Z,14.63
2022-09-11T17:17:27.099Z,14.54
2022-09-11T17:20:29.395Z,14.26
2022-09-11T17:23:33.290Z,14.22
2022-09-11T17:26:36.361Z,14.11
2022-09-11T17:29:43.784Z,14.16
2022-09-11T17:32:47.043Z,14.07
2022-09-11T17:35:51.100Z,14.09
2022-09-11T17:38:53.281Z,14.12
2022-09-11T17:41:56.192Z,14.15
2022-09-11T17:44:59.660Z,14.17
2022-09-11T17:48:02.461Z,14.13
2022-09-11T17:51:07.750Z,14.02
2022-09-11T17:54:10.170Z,13.97
2022-09-11T17:57:12.530Z,14.00
2022-09-11T18:00:15.229Z,13.94
2022-09-11T18:03:22.824Z,13.94
2022-09-11T18:06:28.501Z,13.89
2022-09-11T18:09:34.806Z,13.93
2022-09-11T18:12:37.276Z,13.90
2022-09-11T18:15:39.526Z,13.93
2022-09-11T18:18:42.872Z,13.81
2022-09-11T18:21:49.377Z,13.72
2022-09-11T18:24:52.956Z,13.70
2022-09-11T18:27:54.978Z,13.78
2022-09-11T18:31:05.267Z,13.65
2022-09-11T18:34:07.592Z,13.57
2022-09-11T18:37:11.441Z,13.59
2022-09-11T18:40:14.438Z,13.46
2022-09-11T18:43:18.352Z,13.30
2022-09-11T18:46:21.828Z,13.11
2022-09-11T18:49:24.663Z,12.96
2022-09-11T18:52:28.890Z,12.93
2022-09-11T18:55:31.254Z,13.04
2022-09-11T18:58:35.664Z,13.09
2022-09-11T19:01:39.155Z,13.11
2022-09-11T19:04:41.287Z,13.19
2022-09-11T19:07:44.418Z,13.22
2022-09-11T19:10:46.515Z,13.31
2022-09-11T19:13:50.995Z,13.24
2022-09-11T19:16:55.250Z,13.38
2022-09-11T19:20:00.273Z,13.28
2022-09-11T19:23:03.663Z,13.15
2022-09-11T19:26:12.520Z,13.26
2022-09-11T19:29:19.323Z,13.24
2022-09-11T19:32:23.943Z,13.18
2022-09-11T19:35:27.435Z,13.22
2022-09-11T19:38:34.427Z,13.24
2022-09-11T19:41:37.934Z,13.17
2022-09-11T19:44:40.891Z,13.22
2022-09-11T19:47:42.961Z,13.29
2022-09-11T19:50:45.908Z,13.24
2022-09-11T19:53:49.318Z,13.18
2022-09-11T19:56:51.921Z,13.29
2022-09-11T19:59:54.051Z,13.28
2022-09-11T20:02:56.278Z,13.31
2022-09-11T20:06:00.311Z,13.28
2022-09-11T20:12:26.847Z,13.25
2022-09-11T20:15:29.258Z,13.26
2022-09-11T20:18:31.667Z,13.21
2022-09-11T20:21:36.123Z,13.26
2022-09-11T20:24:38.465Z,13.35
2022-09-11T20:27:40.984Z,13.17
2022-09-11T20:30:44.151Z,13.32
2022-09-11T20:33:46.730Z,13.31
2022-09-11T20:36:48.834Z,13.41
2022-09-11T20:39:51.479Z,13.29
2022-09-11T20:42:53.633Z,13.30
2022-09-11T20:45:55.883Z,13.18
2022-09-11T20:48:58.142Z,13.14
2022-09-11T20:52:00.667Z,13.25
2022-09-11T20:55:03.598Z,13.17
2022-09-11T20:58:06.213Z,13.15
2022-09-11T21:01:10.706Z,13.13
2022-09-11T21:04:13.092Z,13.02
2022-09-11T21:07:15.106Z,13.06
2022-09-11T21:10:17.441Z,12.95
2022-09-11T21:13:19.491Z,13.04
2022-09-11T21:16:22.233Z,12.92
2022-09-11T21:19:24.306Z,12.96
2022-09-11T21:22:26.778Z,12.88
2022-09-11T21:25:28.829Z,12.87
2022-09-11T21:28:31.123Z,12.81
2022-09-11T21:31:33.611Z,12.62
2022-09-11T21:34:35.928Z,12.71
2022-09-11T21:37:37.895Z,12.60
2022-09-11T21:40:40.227Z,12.47
2022-09-11T21:43:42.265Z,12.48
2022-09-11T21:46:44.518Z,12.35
2022-09-11T21:49:46.518Z,12.35
2022-09-11T21:52:48.715Z,12.41
2022-09-11T21:55:50.757Z,12.43
2022-09-11T21:58:53.587Z,12.40
2022-09-11T22:01:55.715Z,12.40
2022-09-11T22:04:57.960Z,12.39
2022-09-11T22:08:00.047Z,12.39
2022-09-11T22:11:05.762Z,12.38
2022-09-11T22:14:07.831Z,12.41
2022-09-11T22:17:11.671Z,12.40
2022-09-11T22:20:13.695Z,12.29
2022-09-11T22:23:17.596Z,12.28
2022-09-11T22:26:21.137Z,12.26
2022-09-11T22:29:23.336Z,12.18
2022-09-11T22:32:25.460Z,12.21
2022-09-11T22:35:28.632Z,12.17
2022-09-11T22:38:30.715Z,12.18
2022-09-11T22:41:33.186Z,12.22
2022-09-11T22:44:35.283Z,12.19
2022-09-11T22:47:37.502Z,12.08
2022-09-11T22:50:39.542Z,11.95
2022-09-11T22:53:41.941Z,11.91
2022-09-11T22:56:44.149Z,11.93
2022-09-11T22:59:47.386Z,11.88
2022-09-11T23:02:49.439Z,11.82
2022-09-11T23:06:17.354Z,11.73
2022-09-11T23:09:19.378Z,11.71
2022-09-11T23:12:21.592Z,11.53
2022-09-11T23:15:23.672Z,11.50
2022-09-11T23:18:27.363Z,11.46
2022-09-11T23:21:30.971Z,11.43
2022-09-11T23:24:33.231Z,11.39
2022-09-11T23:27:35.317Z,11.33
2022-09-11T23:30:41.804Z,11.35
2022-09-11T23:33:44.286Z,11.35
2022-09-11T23:36:47.169Z,11.22
2022-09-11T23:39:49.391Z,11.30
2022-09-11T23:42:51.706Z,11.30
2022-09-11T23:45:53.739Z,11.25
2022-09-11T23:48:56.216Z,11.18
2022-09-11T23:51:58.309Z,11.14
2022-09-11T23:55:00.536Z,11.04
2022-09-11T23:58:03.198Z,11.09
